Port Clements, Canada
Current Conditions -  °F | °C
As of 10:00 AM on Thursday 30 Oct 2014 (Local Time) from CZMT Reporting Station
Light Rain Light Rain  
Wind Chill:   Ceiling: 1200
Heat Index:   Visibility: 15mi
Dew Point:   Wind: 2mph
Humidity: 100%   Direction: 340°NNW
Pressure: 29.42"   Gusts: NA
Location:  53.68°N, 132.17°W
Report Text: CZMT 301700Z 34002KT 15SM -RA FEW005 BKN012 OVC020 07/07 A2942 RMK SF2SC5SC1 VIS SE-S 13/4 BR PRESFR SLP963
Loading
Personal Weather Stations






























Interactive Weather Map
Tropical Storm Tracking
New forecast layout! Learn more

10-Day Weather Forecast

Advertisements
Track Severe Weather on mobile